»·PEaware :: N1XC KAPV-KBFL

N1XC :: KAPV-KBFL

FLIGHT INFORMATION

Flight Status: Arrived
Operator: Privately registered:
United States
More flights under this callsign
Pilot: Adam S. (8156)
Aircraft: CESSNA T210 TURBO CENTURION
(T210)
More flights by this aircraft type
Origin: KAPV Apple Valley
United States
Destination: KBFL Meadows
United States
More flights between these airports :: More routes between these airports
Route: KPMD
File this flight plan on PilotEdge
Remarks:
Altitude:
(Current/Filed)
6,500ft
Speed:
(Current/Filed)
160kts
Departed: 29-Aug-17 11:34 PM
Arrived: 30-Aug-17 12:22 AM
Distance/Time
Traveled:
105nm/0:48
Distance/Time
To Go:
Arrived

Flight Plot

Page will automatically refresh every two minutes.

Flight plan parsing failed; only flown route is shown


Map Options




Map Legend


Flown Route
Filed Route
Departure Airport
Arrival Airport
Navaid (VOR, NDB)
Fix

Horizontal Profiles

Position Reports

Time Latitude Longitude Heading Altitude Ground
Speed
29-Aug-17 23:36 34.587667 -117.183580 89 3005ft 0kts
29-Aug-17 23:37 34.587376 -117.182816 154 3005ft 17kts
29-Aug-17 23:38 34.571310 -117.188109 197 3098ft 81kts
29-Aug-17 23:39 34.554661 -117.176497 107 3544ft 83kts
29-Aug-17 23:40 34.563378 -117.159772 314 3879ft 73kts
29-Aug-17 23:41 34.572347 -117.181635 286 4229ft 73kts
29-Aug-17 23:42 34.577456 -117.205823 278 4510ft 82kts
29-Aug-17 23:43 34.580906 -117.232806 274 4860ft 81kts
29-Aug-17 23:44 34.583674 -117.262841 275 5685ft 96kts
29-Aug-17 23:45 34.586219 -117.295337 274 6763ft 103kts
29-Aug-17 23:46 34.589422 -117.344557 274 6589ft 171kts
29-Aug-17 23:47 34.592927 -117.403969 274 6429ft 179kts
29-Aug-17 23:48 34.596304 -117.463946 274 6427ft 177kts
29-Aug-17 23:49 34.599627 -117.523348 274 6427ft 177kts
29-Aug-17 23:50 34.602914 -117.582940 274 6427ft 177kts
29-Aug-17 23:51 34.606146 -117.642496 274 6352ft 176kts
29-Aug-17 23:52 34.608961 -117.692933 271 6346ft 173kts
29-Aug-17 23:53 34.612030 -117.751533 271 6346ft 174kts
29-Aug-17 23:54 34.615145 -117.810126 271 6346ft 174kts
29-Aug-17 23:55 34.618243 -117.868968 271 6346ft 174kts
29-Aug-17 23:56 34.621299 -117.927543 271 6346ft 174kts
29-Aug-17 23:57 34.625681 -117.985169 275 6346ft 175kts
29-Aug-17 23:58 34.631698 -118.043254 275 6346ft 175kts
29-Aug-17 23:59 34.653483 -118.088962 338 6349ft 180kts
30-Aug-17 00:00 34.700736 -118.107635 340 6526ft 172kts
30-Aug-17 00:01 34.743903 -118.133839 319 6567ft 178kts
30-Aug-17 00:02 34.778997 -118.176142 300 6567ft 177kts
30-Aug-17 00:03 34.807925 -118.223979 305 6608ft 172kts
30-Aug-17 00:04 34.833941 -118.270014 303 6618ft 162kts
30-Aug-17 00:05 34.858833 -118.315229 303 6617ft 161kts
30-Aug-17 00:06 34.883780 -118.360518 303 6617ft 161kts
30-Aug-17 00:07 34.908676 -118.405674 303 6616ft 162kts
30-Aug-17 00:08 34.936181 -118.449534 302 6752ft 167kts
30-Aug-17 00:09 34.962076 -118.497885 302 6754ft 172kts
30-Aug-17 00:10 34.988233 -118.546681 302 6754ft 173kts
30-Aug-17 00:11 35.014475 -118.595621 302 6754ft 173kts
30-Aug-17 00:12 35.040819 -118.644734 302 6754ft 173kts
30-Aug-17 00:13 35.067791 -118.685399 316 6755ft 173kts
30-Aug-17 00:14 35.105006 -118.722876 319 6755ft 174kts
30-Aug-17 00:15 35.140585 -118.758884 318 6680ft 159kts
30-Aug-17 00:16 35.175434 -118.794269 319 5495ft 173kts
30-Aug-17 00:17 35.211565 -118.830974 319 3961ft 164kts
30-Aug-17 00:18 35.245836 -118.865837 319 3080ft 163kts
30-Aug-17 00:19 35.284921 -118.895167 336 2955ft 170kts
30-Aug-17 00:20 35.319062 -118.925750 323 2362ft 141kts
30-Aug-17 00:21 35.343704 -118.948489 318 1712ft 93kts
30-Aug-17 00:22 35.363874 -118.971861 315 1413ft 102kts
30-Aug-17 00:23 35.385047 -118.997355 314 1143ft 108kts
30-Aug-17 00:24 35.405719 -119.022281 314 850ft 103kts
30-Aug-17 00:25 35.424429 -119.044796 313 597ft 87kts
30-Aug-17 00:26 35.436257 -119.057777 58 497ft 9kts
30-Aug-17 00:27 35.436323 -119.057574 76 497ft 0kts
30-Aug-17 00:28 35.436323 -119.057574 76 497ft 0kts
30-Aug-17 00:29 35.436323 -119.057574 76 497ft 0kts
30-Aug-17 00:30 35.436323 -119.057574 76 497ft 0kts

Navigation Log

Ident Type
Flight plan parsing failed, navigation log unavailable